Grosse Ile, MI

12:57 AM EST on December 03, 2016 (GMT -0500)
West Shore Estates | | Change Station

Elev 584 ft 42.14 °N, 83.17 °W | Updated 8 seconds ago

Overcast
Overcast
35.7 °F
Feels Like 36 °F
N
1.0
Wind Variable Wind from SSW
Gusts 3.0 mph

Today
High -- | Low -- °F
--% Chance of Precip.
Yesterday
High -- | Low -- °F
Precip. -- in
Pressure 30.24 in
Visibility 10.0 miles
Clouds Overcast 3300 ft
Windchill 36 °F
Dew Point 30 °F
Humidity 80%
Rainfall 0.00 in
Snow Depth Not available.
7:44 AM 5:01 PM
Waxing Crescent, 12% visible
METAR KONZ 030553Z AUTO 28005KT 10SM OVC033 02/M02 A3024 RMK AO2 T00201023 10028 20010 400570010
Pressure 30.24 in
Visibility 10.0 miles
Clouds Overcast 3300 ft
Windchill 36 °F
Dew Point 30 °F
Humidity 80%
Rainfall 0.00 in
Snow Depth Not available.
7:44 AM 5:01 PM
Waxing Crescent, 12% visible
METAR KONZ 030553Z AUTO 28005KT 10SM OVC033 02/M02 A3024 RMK AO2 T00201023 10028 20010 400570010

10-Day Weather Forecast

Almanac

Astronomy

Dec. 03, 2016 Rise Set
Actual Time
Civil Twilight
Nautical Twilight
Astronomical Twilight
Moon
Length of Visible Light
Length of Day
Tomorrow will be .
, % of the Moon is Illuminated

Today's Extremes

State Highs State Lows

Community

WunderPhotos

Upload Photos

1,955,427 photos uploaded!

WunderBlog® & News

Nearby

Air Quality

  Air Quality AQ Index Pollutant
Not available.

Snow Depth

Station Depth Elevation

Earthquake Activity

City Distance Mag. Time & Date
Minimum magnitude displayed is 2.5.

Coastal Water Temperatures

Place Temperature

Stations

Nearby Weather Stations

Station Location Temp. Windchill Dew Point Humidity Wind Precip. Elev Updated Type
                   

Watches & Warnings

There are currently no watches in effect.